Nearby METAR Reports

 

KT74 - Taylor Muni, Texas, USA
Distance from station: W 2mi, 3km
Updated: Fri, 19-Apr-2024 12:55am CDT
Clear
Clear
 Wind from SSW
Wind: SSW 7 mph, 11 km/h
Temperature: 73°F, 23°C
Dew Point: 68°F, 20°C
Humidity: 83%
Barometer: 29.99 inHg, 1015.6 hPa
Clouds: Clear
Visibility: 10 miles, 16 km
2024/04/19 05:55 KT74 190555Z AUTO 20006KT 10SM CLR 23/20 A2999 RMK AO2 T02260203 10286 20224
KEDC - Austin Exec, Texas, USA
Distance from station: SW 16mi, 25km
Updated: Fri, 19-Apr-2024 12:55am CDT
Few Clouds
Few Clouds
 Wind from calm
Wind: Calm
Temperature: 72°F, 22°C
Dew Point: 72°F, 22°C
Humidity: 100%
Barometer: 29.97 inHg, 1014.9 hPa
Clouds: Few Clouds
Visibility: 10 miles, 16 km
Cloud details: Few Clouds 5000 ft
Few Clouds 5500 ft
2024/04/19 05:55 KEDC 190555Z AUTO 00000KT 10SM FEW050 FEW055 22/22 A2997 RMK AO2
 
KGTU - Georgetown, Texas, USA
Distance from station: WNW 17mi, 28km
Updated: Fri, 19-Apr-2024 12:56am CDT
Few Clouds
Few Clouds
 Wind from S
Wind: S 7 mph, 11 km/h
Temperature: 75°F, 24°C
Dew Point: 70°F, 21°C
Humidity: 83%
Barometer: 30.01 inHg, 1016.3 hPa
Clouds: Few Clouds
Visibility: 10 miles, 16 km
Cloud details: Few Clouds 6000 ft
2024/04/19 05:56 KGTU 190556Z AUTO 19006KT 10SM FEW060 24/21 A3001 RMK AO2 SLP157 T02390206 10294 20239 403110222 51011
KATT - Austin/Mabry, Texas, USA
Distance from station: SW 28mi, 45km
Updated: Fri, 19-Apr-2024 12:38am CDT
Partly cloudy
Partly cloudy
 Wind from S
Wind: S 6 mph, 9 km/h
Temperature: 73°F, 23°C
Dew Point: 70°F, 21°C
Humidity: 89%
Barometer: 30.00 inHg, 1015.9 hPa
Clouds: Partly cloudy
Visibility: 10 miles, 16 km
Cloud details: Partly cloudy 1600 ft
2024/04/19 05:38 KATT 190538Z AUTO 18005KT 10SM SCT016 23/21 A3000 RMK AO2 T02330206
 
KAUS - Austin, Texas, USA
Distance from station: SSW 32mi, 51km
Updated: Fri, 19-Apr-2024 12:53am CDT
Partly cloudy
Partly cloudy
 Wind from SSW
Wind: SSW 6 mph, 9 km/h
Temperature: 72°F, 22°C
Dew Point: 70°F, 21°C
Humidity: 94%
Barometer: 29.98 inHg, 1015.2 hPa
Clouds: Partly cloudy
Visibility: 10 miles, 16 km
Cloud details: Partly cloudy 1500 ft
Partly cloudy 2900 ft
2024/04/19 05:53 KAUS 190553Z 20005KT 10SM SCT015 SCT029 22/21 A2998 RMK AO2 SLP142 T02220206 10294 20222 403170217 50019
KRYW - Lago Vista, Texas, USA
Distance from station: W 33mi, 54km
Updated: Fri, 19-Apr-2024 12:55am CDT
Partly cloudy
Partly cloudy
 Wind from S
Wind: S 7 mph, 11 km/h
Temperature: 72°F, 22°C
Dew Point: 70°F, 21°C
Humidity: 94%
Barometer: 30.02 inHg, 1016.6 hPa
Clouds: Partly cloudy
Visibility: 10 miles, 16 km
Cloud details: Partly cloudy 1100 ft
2024/04/19 05:55 KRYW 190555Z AUTO 19006KT 10SM SCT011 22/21 A3002 RMK AO2 T02210209 10280 20221 403030210
 
KILE - Killeen Muni, Texas, USA
Distance from station: NNW 37mi, 59km
Updated: Fri, 19-Apr-2024 12:56am CDT
Overcast
Overcast
 Wind from ENE
Wind: ENE 8 mph, 13 km/h
Temperature: 75°F, 24°C
Dew Point: 64°F, 18°C
Humidity: 69%
Barometer: 30.01 inHg, 1016.3 hPa
Clouds: Overcast
Visibility: 10 miles, 16 km
Cloud details: Overcast 2000 ft
2024/04/19 05:56 KILE 190556Z AUTO 07007KT 10SM OVC020 24/18 A3001 RMK AO2 SLP152 T02390178 10278 20239 403110211 51011
KTPL - Temple/Miller, Texas, USA
Distance from station: N 38mi, 61km
Updated: Fri, 19-Apr-2024 12:51am CDT
Overcast
Overcast
 Wind from N
Wind: N 7 mph, 11 km/h
Temperature: 73°F, 23°C
Dew Point: 63°F, 17°C
Humidity: 69%
Barometer: 30.00 inHg, 1015.9 hPa
Clouds: Overcast
Visibility: 10 miles, 16 km
Cloud details: Mostly cloudy 2200 ft
Overcast 2700 ft
2024/04/19 05:51 KTPL 190551Z AUTO 01006KT 10SM BKN022 OVC027 23/17 A3000 RMK AO2 SLP149 T02280167 10267 20228 403000211 53015
 
KGYB - Giddings-Lee, Texas, USA
Distance from station: SE 39mi, 62km
Updated: Fri, 19-Apr-2024 12:55am CDT
Clear
Clear
 Wind from calm
Wind: Calm
Temperature: 72°F, 22°C
Dew Point: 68°F, 20°C
Humidity: 88%
Barometer: 29.98 inHg, 1015.2 hPa
Clouds: Clear
Visibility: 10 miles, 16 km
2024/04/19 05:55 KGYB 190555Z AUTO 00000KT 10SM CLR 22/20 A2998 RMK AO2 T02210197 10286 20221 403020221
KHLR - Ft Hood/Killeen, Texas, USA
Distance from station: NNW 42mi, 67km
Updated: Fri, 19-Apr-2024 1:08am CDT
Light rain, Overcast
Light rain, Overcast
 Wind from NE
Wind: NE 10 mph, 17 km/h
Temperature: 75°F, 24°C
Dew Point: 61°F, 16°C
Humidity: 61%
Barometer: 30.02 inHg, 1016.6 hPa
Summary: Light rain
Clouds: Overcast
Visibility: 10 miles, 16 km
Cloud details: Overcast 2100 ft
2024/04/19 06:08 KHLR 190608Z AUTO 04009KT 10SM -RA OVC021 24/16 A3002 RMK AO2 RAB08 SLP155